Time;durP1;ratioP1;P1;durP2;ratioP2;P2;SDS_P1;SDS_P2;PMS_P1;PMS_P2;Temp;Humidity;BMP_temperature;BMP_pressure;BME280_temperature;BME280_humidity;BME280_pressure;Samples;Min_cycle;Max_cycle;Signal;HPM_P1;HPM_P2
2023/08/03 00:01:36;;;;;;;4.40;1.90;;;17.40;99.90;;;;;;4985055;28;20189;-35
2023/08/03 00:04:02;;;;;;;3.72;2.03;;;17.40;99.90;;;;;;4986378;28;20247;-35
2023/08/03 00:06:28;;;;;;;5.63;1.88;;;17.40;99.90;;;;;;4972180;28;20223;-35
2023/08/03 00:08:54;;;;;;;6.57;2.00;;;17.40;99.90;;;;;;4976543;28;20204;-35
2023/08/03 00:11:20;;;;;;;6.60;1.98;;;17.40;99.90;;;;;;4973977;28;20227;-35
2023/08/03 00:13:46;;;;;;;3.78;1.70;;;17.40;99.90;;;;;;4972668;28;20211;-35
2023/08/03 00:16:12;;;;;;;5.95;1.95;;;17.40;99.90;;;;;;4972821;28;20252;-35
2023/08/03 00:18:38;;;;;;;4.50;1.80;;;17.40;99.90;;;;;;4972707;28;20183;-38
2023/08/03 00:21:04;;;;;;;6.25;1.85;;;17.40;99.90;;;;;;4982368;28;20176;-35
2023/08/03 00:23:30;;;;;;;7.20;1.85;;;17.40;99.90;;;;;;4963365;28;20196;-35
2023/08/03 00:25:56;;;;;;;6.72;2.28;;;17.40;99.90;;;;;;4976170;28;20216;-35
2023/08/03 00:28:22;;;;;;;6.57;2.35;;;17.40;99.90;;;;;;4964929;28;20212;-35
2023/08/03 00:30:48;;;;;;;9.70;2.00;;;17.40;99.90;;;;;;4972261;28;20238;-35
2023/08/03 00:33:14;;;;;;;8.00;2.10;;;17.50;99.90;;;;;;4985292;28;20188;-35
2023/08/03 00:35:39;;;;;;;8.38;2.08;;;17.50;99.90;;;;;;4971646;28;20184;-35
2023/08/03 00:38:05;;;;;;;9.85;2.50;;;17.50;99.90;;;;;;4981751;28;20216;-35
2023/08/03 00:40:33;;;;;;;5.00;1.95;;;17.50;99.90;;;;;;4979213;28;20264;-35
2023/08/03 00:43:04;;;;;;;7.47;2.10;;;17.50;99.90;;;;;;4976567;28;20192;-35
2023/08/03 00:45:30;;;;;;;8.15;2.00;;;17.60;99.90;;;;;;4971080;28;20184;-35
2023/08/03 00:47:56;;;;;;;8.20;2.28;;;17.60;99.90;;;;;;4978425;28;20222;-35
2023/08/03 00:50:25;;;;;;;6.15;1.85;;;17.60;99.90;;;;;;4990637;28;20230;-35
2023/08/03 00:52:51;;;;;;;11.40;2.72;;;17.60;99.90;;;;;;4974445;28;20177;-35
2023/08/03 00:55:17;;;;;;;8.50;2.22;;;17.60;99.90;;;;;;4977579;28;20204;-35
2023/08/03 00:57:43;;;;;;;7.20;2.13;;;17.60;99.90;;;;;;4976025;28;20215;-35
2023/08/03 01:00:10;;;;;;;7.18;2.05;;;17.60;99.90;;;;;;4980088;28;20180;-35
2023/08/03 01:02:36;;;;;;;9.43;2.38;;;17.60;99.90;;;;;;4974532;28;20197;-35
2023/08/03 01:05:02;;;;;;;13.40;2.60;;;17.60;99.90;;;;;;4970871;28;20220;-34
2023/08/03 01:07:28;;;;;;;6.65;1.77;;;17.60;99.90;;;;;;4974540;28;20207;-34
2023/08/03 01:09:55;;;;;;;7.82;2.13;;;17.70;99.90;;;;;;4982334;28;20180;-34
2023/08/03 01:12:21;;;;;;;8.23;1.75;;;17.90;99.90;;;;;;4968648;28;20225;-34
2023/08/03 01:14:47;;;;;;;6.13;1.70;;;18.00;99.90;;;;;;4974120;28;20212;-34
2023/08/03 01:17:14;;;;;;;5.88;1.90;;;18.10;99.90;;;;;;4970929;28;20184;-34
2023/08/03 01:19:40;;;;;;;6.88;1.60;;;18.00;99.90;;;;;;4966211;28;20188;-35
2023/08/03 01:22:08;;;;;;;9.70;2.17;;;18.00;99.90;;;;;;4955440;28;20208;-35
2023/08/03 01:24:35;;;;;;;6.70;1.50;;;18.10;99.90;;;;;;4974207;28;20290;-35
2023/08/03 01:27:03;;;;;;;5.50;1.63;;;18.10;99.90;;;;;;4974360;28;20295;-34
2023/08/03 01:29:29;;;;;;;6.97;1.63;;;18.00;99.90;;;;;;4953855;28;20176;-35
2023/08/03 01:31:56;;;;;;;5.55;1.75;;;18.10;99.90;;;;;;4964091;28;20231;-35
2023/08/03 01:34:26;;;;;;;7.55;1.50;;;18.10;99.90;;;;;;4977195;28;20204;-34
2023/08/03 01:36:53;;;;;;;6.07;1.50;;;18.00;99.90;;;;;;4979100;28;20199;-35
2023/08/03 01:39:23;;;;;;;5.65;1.55;;;18.00;99.90;;;;;;4974053;28;20188;-35
2023/08/03 01:41:49;;;;;;;8.30;2.20;;;18.00;99.90;;;;;;4986897;28;20183;-35
2023/08/03 01:44:20;;;;;;;5.47;1.70;;;18.00;99.90;;;;;;4990756;28;20211;-34
2023/08/03 01:46:46;;;;;;;3.35;1.40;;;18.00;99.90;;;;;;4975892;28;20207;-35
2023/08/03 01:49:12;;;;;;;5.25;1.55;;;18.00;99.90;;;;;;4982648;28;20181;-34
2023/08/03 01:51:40;;;;;;;5.38;1.35;;;18.00;99.90;;;;;;4981695;28;20275;-34
2023/08/03 01:54:06;;;;;;;5.25;1.63;;;18.10;99.90;;;;;;4964297;28;20193;-35
2023/08/03 01:56:32;;;;;;;3.22;1.35;;;18.00;99.90;;;;;;4967387;28;20217;-35
2023/08/03 01:58:58;;;;;;;7.93;1.90;;;18.00;99.90;;;;;;4955906;28;20230;-34
2023/08/03 02:01:25;;;;;;;4.15;1.60;;;18.00;99.90;;;;;;4983484;28;20207;-35
2023/08/03 02:03:50;;;;;;;9.25;2.03;;;18.00;99.90;;;;;;4985533;28;20765;-35
2023/08/03 02:06:16;;;;;;;6.85;1.70;;;18.00;99.90;;;;;;4971097;28;20235;-42
2023/08/03 02:08:42;;;;;;;7.25;1.70;;;18.00;99.90;;;;;;4970805;28;20196;-35
2023/08/03 02:11:08;;;;;;;6.38;1.70;;;18.10;99.90;;;;;;4980551;28;20195;-34
2023/08/03 02:13:34;;;;;;;5.80;1.38;;;18.10;99.90;;;;;;4967744;28;20205;-35
2023/08/03 02:16:08;;;;;;;7.05;1.70;;;18.10;99.90;;;;;;4974362;28;20264;-34
2023/08/03 02:18:38;;;;;;;6.60;1.48;;;18.10;99.90;;;;;;4959664;28;20196;-34
2023/08/03 02:21:05;;;;;;;5.18;1.70;;;18.10;99.90;;;;;;4980812;28;20247;-35
2023/08/03 02:23:31;;;;;;;9.05;1.50;;;18.00;99.90;;;;;;4970408;28;20223;-34
2023/08/03 02:25:57;;;;;;;8.60;2.38;;;18.10;99.90;;;;;;4977760;28;20188;-35
2023/08/03 02:28:23;;;;;;;6.30;1.52;;;18.10;99.90;;;;;;4977408;28;20226;-35
2023/08/03 02:30:49;;;;;;;6.53;1.55;;;18.00;99.90;;;;;;4978735;28;20235;-35
2023/08/03 02:33:16;;;;;;;7.90;2.13;;;18.00;99.90;;;;;;4979487;28;20204;-35
2023/08/03 02:35:43;;;;;;;6.78;1.80;;;18.00;99.90;;;;;;4983574;28;20179;-34
2023/08/03 02:38:09;;;;;;;6.18;1.60;;;18.00;99.90;;;;;;4971743;28;20239;-35
2023/08/03 02:40:34;;;;;;;5.63;1.83;;;18.00;99.90;;;;;;4978494;28;20231;-35
2023/08/03 02:43:00;;;;;;;6.80;1.67;;;18.00;99.90;;;;;;4980179;28;20193;-34
2023/08/03 02:45:29;;;;;;;5.72;1.80;;;18.00;99.90;;;;;;4970231;28;20185;-34
2023/08/03 02:47:56;;;;;;;4.13;1.58;;;18.00;99.90;;;;;;4970374;28;20212;-37
2023/08/03 02:50:23;;;;;;;7.72;1.70;;;18.00;99.90;;;;;;4972580;28;20273;-35
2023/08/03 02:52:53;;;;;;;5.75;1.70;;;17.90;99.90;;;;;;4966682;28;20282;-34
2023/08/03 02:55:19;;;;;;;5.75;1.80;;;18.00;99.90;;;;;;4970652;28;20233;-34
2023/08/03 02:57:46;;;;;;;5.90;1.50;;;17.90;99.90;;;;;;4984270;28;20421;-35
2023/08/03 03:00:13;;;;;;;9.27;1.80;;;17.90;99.90;;;;;;4975600;28;20177;-35
2023/08/03 03:02:40;;;;;;;4.85;1.50;;;17.90;99.90;;;;;;4986203;28;20279;-33
2023/08/03 03:05:10;;;;;;;6.78;1.52;;;17.90;99.90;;;;;;4980290;28;20244;-33
2023/08/03 03:07:41;;;;;;;8.27;1.55;;;17.90;99.90;;;;;;4981252;28;20268;-35
2023/08/03 03:10:07;;;;;;;5.45;1.65;;;17.90;99.90;;;;;;4984433;28;20196;-35
2023/08/03 03:12:33;;;;;;;5.13;1.77;;;17.90;99.90;;;;;;4985813;28;20211;-35
2023/08/03 03:14:59;;;;;;;7.25;1.45;;;17.90;99.90;;;;;;4973593;28;20227;-34
2023/08/03 03:17:24;;;;;;;5.50;1.70;;;17.90;99.90;;;;;;4989962;28;20215;-35
2023/08/03 03:19:50;;;;;;;5.13;1.60;;;17.80;99.90;;;;;;4966980;28;20251;-34
2023/08/03 03:22:16;;;;;;;4.53;1.70;;;17.80;99.90;;;;;;4979535;28;20311;-33
2023/08/03 03:24:42;;;;;;;8.75;1.60;;;17.80;99.90;;;;;;4968731;28;20215;-36
2023/08/03 03:27:09;;;;;;;5.05;1.35;;;17.70;99.90;;;;;;5003358;28;20238;-33
2023/08/03 03:29:44;;;;;;;4.35;1.40;;;17.70;99.90;;;;;;4979767;28;20175;-35
2023/08/03 03:32:10;;;;;;;3.85;1.35;;;17.70;99.90;;;;;;4965135;28;20196;-33
2023/08/03 03:34:37;;;;;;;7.03;1.50;;;17.60;99.90;;;;;;4985590;28;20211;-35
2023/08/03 03:37:03;;;;;;;8.13;1.55;;;17.60;99.90;;;;;;4982589;28;20176;-35
2023/08/03 03:39:30;;;;;;;3.97;1.25;;;17.50;99.90;;;;;;4983497;28;20188;-37
2023/08/03 03:42:01;;;;;;;4.30;1.30;;;17.50;99.90;;;;;;4981431;28;20189;-34
2023/08/03 03:44:32;;;;;;;5.28;1.30;;;17.50;99.90;;;;;;4991950;28;20203;-35
2023/08/03 03:46:59;;;;;;;5.18;1.27;;;17.50;99.90;;;;;;4988546;28;20208;-34
2023/08/03 03:49:28;;;;;;;3.15;0.70;;;17.40;99.90;;;;;;4988398;28;20183;-34
2023/08/03 03:51:54;;;;;;;4.07;1.25;;;17.50;99.90;;;;;;4977303;28;20177;-34
2023/08/03 03:54:26;;;;;;;2.65;0.90;;;17.40;99.90;;;;;;4958363;28;20208;-35
2023/08/03 03:56:55;;;;;;;4.47;0.90;;;17.40;99.90;;;;;;4979712;28;20187;-34
2023/08/03 03:59:21;;;;;;;4.00;1.00;;;17.40;99.90;;;;;;4985272;28;20185;-35
2023/08/03 04:01:47;;;;;;;1.85;0.70;;;17.40;99.90;;;;;;4986279;28;20199;-34
2023/08/03 04:04:13;;;;;;;2.58;0.75;;;17.30;99.90;;;;;;4992366;28;20231;-35
2023/08/03 04:06:39;;;;;;;4.55;1.27;;;17.30;99.90;;;;;;4982898;28;20208;-34
2023/08/03 04:09:04;;;;;;;2.78;1.15;;;17.20;99.90;;;;;;4985135;28;20176;-34
2023/08/03 04:11:30;;;;;;;2.58;0.95;;;17.20;99.90;;;;;;4984098;28;20193;-36
2023/08/03 04:13:56;;;;;;;3.05;1.02;;;17.10;99.90;;;;;;4972716;28;20207;-34
2023/08/03 04:16:22;;;;;;;4.70;1.38;;;17.10;99.90;;;;;;4972772;28;20242;-34
2023/08/03 04:18:48;;;;;;;3.25;1.10;;;17.10;99.90;;;;;;4972514;28;20248;-36
2023/08/03 04:21:13;;;;;;;3.72;0.95;;;17.00;99.90;;;;;;4984404;28;20192;-33
2023/08/03 04:23:39;;;;;;;3.15;0.95;;;17.00;99.90;;;;;;4971873;28;20262;-35
2023/08/03 04:26:08;;;;;;;2.33;0.80;;;16.90;99.90;;;;;;4985562;28;20194;-33
2023/08/03 04:28:34;;;;;;;2.45;0.80;;;16.90;99.90;;;;;;4983393;28;20176;-36
2023/08/03 04:31:00;;;;;;;3.03;1.00;;;16.90;99.90;;;;;;4972066;28;20191;-33
2023/08/03 04:33:28;;;;;;;2.03;0.83;;;16.80;99.90;;;;;;4980538;28;20255;-37
2023/08/03 04:35:57;;;;;;;3.13;1.00;;;16.80;99.90;;;;;;4986617;28;20184;-34
2023/08/03 04:38:28;;;;;;;3.17;0.70;;;16.80;99.90;;;;;;4987245;28;20205;-34
2023/08/03 04:41:02;;;;;;;2.50;0.87;;;16.80;99.90;;;;;;4986956;28;20186;-36
2023/08/03 04:43:33;;;;;;;1.13;0.80;;;16.70;99.90;;;;;;4973062;28;20205;-34
2023/08/03 04:46:01;;;;;;;3.53;0.90;;;16.70;99.90;;;;;;4974236;28;20177;-35
2023/08/03 04:48:27;;;;;;;1.97;0.90;;;16.70;99.90;;;;;;4976209;28;20209;-35
2023/08/03 04:50:55;;;;;;;2.50;0.80;;;16.70;99.90;;;;;;4973378;28;20177;-35
2023/08/03 04:53:23;;;;;;;1.87;1.10;;;16.70;99.90;;;;;;4969279;28;20200;-35
2023/08/03 04:55:50;;;;;;;2.13;1.00;;;16.70;99.90;;;;;;4973292;28;20180;-34
2023/08/03 04:58:16;;;;;;;3.77;0.80;;;16.60;99.90;;;;;;4980054;28;20227;-34
2023/08/03 05:00:45;;;;;;;2.60;1.08;;;16.60;99.90;;;;;;4991320;28;20187;-34
2023/08/03 05:03:11;;;;;;;3.85;1.17;;;16.60;99.90;;;;;;4979019;28;20188;-33
2023/08/03 05:05:37;;;;;;;3.00;1.00;;;16.70;99.90;;;;;;4971705;28;20192;-33
2023/08/03 05:08:03;;;;;;;3.17;1.20;;;16.70;99.90;;;;;;4971936;28;20213;-34
2023/08/03 05:10:29;;;;;;;4.20;0.90;;;16.70;99.90;;;;;;4971769;28;20203;-34
2023/08/03 05:12:55;;;;;;;1.87;0.80;;;16.70;99.90;;;;;;4985170;28;20180;-34
2023/08/03 05:15:21;;;;;;;2.30;1.00;;;16.70;99.90;;;;;;4973977;28;20212;-37
2023/08/03 05:17:49;;;;;;;4.23;1.10;;;16.80;99.90;;;;;;4971889;28;20201;-34
2023/08/03 05:20:16;;;;;;;3.80;1.10;;;16.80;99.90;;;;;;4980380;28;20188;-33
2023/08/03 05:22:42;;;;;;;2.95;0.90;;;16.80;99.90;;;;;;4976295;28;20667;-34
2023/08/03 05:25:09;;;;;;;3.15;0.80;;;16.90;99.90;;;;;;4971278;28;20219;-33
2023/08/03 05:27:34;;;;;;;2.35;0.90;;;16.90;99.90;;;;;;4967700;28;20211;-35
2023/08/03 05:30:00;;;;;;;2.03;0.90;;;16.90;99.90;;;;;;4990665;28;20188;-34
2023/08/03 05:32:26;;;;;;;4.70;0.95;;;17.10;99.90;;;;;;4985816;28;20184;-34
2023/08/03 05:34:52;;;;;;;3.83;1.00;;;17.20;99.90;;;;;;4985606;28;20270;-34
2023/08/03 05:37:18;;;;;;;3.75;1.05;;;17.30;99.90;;;;;;4978662;28;20199;-33
2023/08/03 05:39:44;;;;;;;3.58;0.90;;;17.40;99.90;;;;;;4985405;28;20283;-34
2023/08/03 05:42:14;;;;;;;3.95;1.02;;;17.50;99.90;;;;;;4990329;28;20218;-33
2023/08/03 05:44:41;;;;;;;3.88;1.10;;;17.50;99.90;;;;;;4974394;28;20207;-35
2023/08/03 05:47:10;;;;;;;3.67;0.93;;;17.70;99.90;;;;;;4986268;28;20294;-35
2023/08/03 05:49:37;;;;;;;2.63;1.00;;;17.70;99.90;;;;;;4970903;28;20184;-33
2023/08/03 05:52:03;;;;;;;4.82;0.98;;;17.80;99.90;;;;;;4975881;28;20187;-35
2023/08/03 05:54:29;;;;;;;3.67;1.10;;;17.80;99.90;;;;;;4970143;28;20675;-36
2023/08/03 05:56:55;;;;;;;3.08;1.00;;;17.90;99.90;;;;;;4965500;28;20202;-38
2023/08/03 05:59:24;;;;;;;2.13;0.82;;;18.00;99.90;;;;;;4975595;28;20181;-33
2023/08/03 06:01:52;;;;;;;2.70;0.80;;;18.00;99.90;;;;;;4969489;28;20328;-34
2023/08/03 06:04:18;;;;;;;3.80;0.98;;;18.10;99.90;;;;;;4985652;28;20308;-35
2023/08/03 06:06:45;;;;;;;5.57;1.25;;;18.10;99.90;;;;;;4974563;28;20207;-35
2023/08/03 06:09:12;;;;;;;3.33;0.93;;;18.10;99.90;;;;;;4989504;28;20181;-35
2023/08/03 06:11:39;;;;;;;5.10;0.85;;;18.10;99.90;;;;;;4987566;28;20190;-35
2023/08/03 06:14:14;;;;;;;5.72;2.60;;;18.00;99.90;;;;;;4968491;28;20200;-34
2023/08/03 06:16:44;;;;;;;3.20;2.33;;;18.00;99.90;;;;;;4989380;28;20228;-35
2023/08/03 06:19:10;;;;;;;3.70;1.20;;;18.10;99.90;;;;;;4990216;28;20654;-35
2023/08/03 06:21:36;;;;;;;5.30;1.48;;;18.20;99.90;;;;;;4984343;28;20235;-33
2023/08/03 06:24:03;;;;;;;3.83;1.17;;;18.30;99.90;;;;;;4970025;28;20291;-35
2023/08/03 06:26:33;;;;;;;3.50;1.25;;;18.40;99.90;;;;;;4971532;28;20188;-36
2023/08/03 06:29:01;;;;;;;6.78;1.08;;;18.40;99.90;;;;;;4990367;28;20215;-34
2023/08/03 06:31:35;;;;;;;6.13;1.15;;;18.50;99.90;;;;;;4990294;28;20191;-35
2023/08/03 06:34:02;;;;;;;2.97;0.95;;;18.50;99.90;;;;;;4990064;28;20221;-34
2023/08/03 06:36:28;;;;;;;4.22;1.15;;;18.50;99.90;;;;;;4989970;28;20183;-35
2023/08/03 06:38:56;;;;;;;4.43;1.30;;;18.50;99.90;;;;;;4985568;28;20188;-35
2023/08/03 06:41:24;;;;;;;4.63;0.88;;;18.50;99.90;;;;;;4969990;28;20271;-34
2023/08/03 06:43:52;;;;;;;5.75;1.13;;;18.50;99.90;;;;;;4976609;28;20200;-34
2023/08/03 06:46:18;;;;;;;4.88;1.10;;;18.50;99.90;;;;;;4993796;28;20176;-35
2023/08/03 06:48:44;;;;;;;3.28;1.08;;;18.50;99.90;;;;;;4993977;28;20230;-34
2023/08/03 06:51:10;;;;;;;2.60;1.00;;;18.60;99.90;;;;;;4991956;28;20186;-34
2023/08/03 06:53:36;;;;;;;3.30;0.90;;;18.70;99.90;;;;;;4990238;28;20203;-36
2023/08/03 06:56:03;;;;;;;3.85;1.08;;;18.70;99.90;;;;;;4974121;28;20247;-34
2023/08/03 06:58:29;;;;;;;4.63;1.30;;;18.70;99.90;;;;;;4991314;28;20184;-34
2023/08/03 07:00:54;;;;;;;4.75;1.20;;;18.80;99.90;;;;;;4993889;28;20195;-34
2023/08/03 07:03:20;;;;;;;4.10;1.20;;;18.90;99.90;;;;;;4993496;28;20242;-35
2023/08/03 07:05:46;;;;;;;3.60;1.00;;;19.00;99.90;;;;;;4975156;28;20189;-35
2023/08/03 07:08:12;;;;;;;3.80;1.10;;;19.10;99.90;;;;;;4975004;28;20259;-35
2023/08/03 07:10:38;;;;;;;4.50;1.10;;;19.10;99.90;;;;;;4973918;28;20239;-34
2023/08/03 07:13:05;;;;;;;4.50;0.95;;;19.10;99.90;;;;;;4986698;28;20188;-33
2023/08/03 07:15:34;;;;;;;2.83;1.15;;;19.20;99.90;;;;;;4984989;28;20188;-33
2023/08/03 07:18:05;;;;;;;3.75;0.95;;;19.20;99.90;;;;;;4990294;28;20211;-32
2023/08/03 07:20:34;;;;;;;2.58;0.93;;;19.20;99.90;;;;;;4983975;28;20181;-33
2023/08/03 07:23:00;;;;;;;3.00;1.00;;;19.30;99.90;;;;;;4985331;28;20187;-33
2023/08/03 07:25:27;;;;;;;3.03;0.90;;;19.20;99.90;;;;;;4980884;28;20184;-33
2023/08/03 07:27:54;;;;;;;2.20;0.95;;;19.10;99.90;;;;;;4980752;28;20218;-33
2023/08/03 07:30:21;;;;;;;3.22;0.90;;;19.00;99.90;;;;;;4972453;28;20276;-33
2023/08/03 07:32:47;;;;;;;1.90;0.75;;;18.90;99.90;;;;;;4975345;28;20275;-33
2023/08/03 07:35:13;;;;;;;2.72;0.90;;;18.90;99.90;;;;;;4985697;28;20200;-33
2023/08/03 07:37:40;;;;;;;1.50;0.80;;;18.90;99.90;;;;;;4977998;28;20180;-33
2023/08/03 07:40:07;;;;;;;2.78;0.80;;;19.00;99.90;;;;;;4979700;28;20197;-34
2023/08/03 07:42:33;;;;;;;3.25;1.00;;;19.00;99.90;;;;;;4977862;28;20184;-33
2023/08/03 07:44:59;;;;;;;3.10;0.85;;;19.00;99.90;;;;;;4981535;28;20300;-32
2023/08/03 07:47:25;;;;;;;2.88;0.80;;;18.90;99.90;;;;;;4978894;28;20258;-33
2023/08/03 07:49:55;;;;;;;2.80;1.13;;;18.90;99.90;;;;;;4980484;28;20173;-34
2023/08/03 07:52:21;;;;;;;2.25;0.75;;;18.80;99.90;;;;;;4976568;28;20181;-32
2023/08/03 07:54:46;;;;;;;0.80;0.70;;;18.80;99.90;;;;;;4971758;28;20211;-33
2023/08/03 07:57:15;;;;;;;2.35;0.90;;;18.90;99.90;;;;;;4973096;28;20188;-33
2023/08/03 07:59:42;;;;;;;3.38;0.75;;;18.90;99.90;;;;;;4974915;28;20189;-33
2023/08/03 08:02:09;;;;;;;1.83;0.90;;;19.20;99.90;;;;;;4972026;28;20184;-34
2023/08/03 08:04:35;;;;;;;2.80;0.85;;;19.40;99.90;;;;;;4970153;28;20242;-33
2023/08/03 08:07:03;;;;;;;2.17;1.00;;;19.30;99.90;;;;;;4972188;28;20211;-34
2023/08/03 08:09:31;;;;;;;3.25;0.88;;;19.10;99.90;;;;;;4972504;28;20181;-34
2023/08/03 08:12:00;;;;;;;2.97;0.90;;;19.10;99.90;;;;;;4973825;28;20184;-33
2023/08/03 08:14:26;;;;;;;4.47;1.00;;;19.10;99.90;;;;;;4970144;28;20200;-32
2023/08/03 08:16:52;;;;;;;4.22;1.10;;;19.20;99.90;;;;;;4975381;28;20196;-33
2023/08/03 08:19:19;;;;;;;1.42;0.60;;;19.30;99.90;;;;;;4972161;28;20192;-34
2023/08/03 08:21:46;;;;;;;1.95;0.68;;;19.30;99.90;;;;;;4974220;28;20185;-33
2023/08/03 08:24:13;;;;;;;1.75;0.80;;;19.10;99.90;;;;;;4970574;28;20204;-33
2023/08/03 08:26:42;;;;;;;3.25;0.88;;;19.10;99.90;;;;;;4975372;28;20315;-33
2023/08/03 08:29:11;;;;;;;2.38;0.82;;;19.10;99.90;;;;;;4973008;28;20184;-34
2023/08/03 08:31:37;;;;;;;3.85;0.82;;;19.30;99.90;;;;;;4969446;28;20185;-34
2023/08/03 08:34:07;;;;;;;3.42;0.90;;;19.50;99.90;;;;;;4991637;28;20215;-34
2023/08/03 08:36:33;;;;;;;2.78;0.93;;;19.60;99.90;;;;;;4978526;28;20196;-33
2023/08/03 08:38:59;;;;;;;1.42;0.70;;;19.50;99.90;;;;;;4971741;28;20212;-34
2023/08/03 08:41:26;;;;;;;2.53;0.88;;;19.50;99.90;;;;;;4971667;28;20192;-33
2023/08/03 08:43:52;;;;;;;2.38;0.68;;;19.50;99.90;;;;;;4971742;28;20204;-33
2023/08/03 08:46:19;;;;;;;1.15;0.60;;;19.60;99.90;;;;;;4969652;28;20196;-33
2023/08/03 08:48:45;;;;;;;2.63;1.10;;;19.60;99.90;;;;;;4971663;28;20212;-33
2023/08/03 08:51:13;;;;;;;1.38;0.70;;;19.70;99.90;;;;;;4977048;28;20214;-33
2023/08/03 08:53:39;;;;;;;3.33;0.90;;;19.90;99.90;;;;;;4972834;28;20291;-34
2023/08/03 08:56:06;;;;;;;1.90;0.70;;;20.00;99.90;;;;;;4978336;28;20195;-35
2023/08/03 08:58:32;;;;;;;4.57;1.13;;;20.00;99.90;;;;;;4973877;28;20190;-34
2023/08/03 09:01:04;;;;;;;2.03;0.93;;;20.10;99.90;;;;;;4972664;28;20191;-33
2023/08/03 09:03:54;;;;;;;3.00;0.80;;;20.00;99.90;;;;;;4975181;28;20214;-35
2023/08/03 09:06:23;;;;;;;2.80;1.00;;;20.10;99.90;;;;;;4961506;28;20208;-33
2023/08/03 09:08:53;;;;;;;2.83;1.10;;;20.40;99.90;;;;;;4989268;28;20188;-33
2023/08/03 09:11:42;;;;;;;4.28;1.10;;;20.60;99.90;;;;;;4991142;28;20176;-33
2023/08/03 09:14:14;;;;;;;2.65;0.68;;;20.50;99.90;;;;;;4978384;28;20267;-33
2023/08/03 09:16:40;;;;;;;1.80;0.80;;;20.30;99.90;;;;;;4984949;28;20192;-34
2023/08/03 09:19:08;;;;;;;1.67;0.80;;;20.20;99.90;;;;;;4971977;28;20196;-33
2023/08/03 09:21:34;;;;;;;3.28;1.20;;;20.20;99.90;;;;;;4974748;28;20267;-34
2023/08/03 09:24:18;;;;;;;4.72;1.10;;;20.30;99.90;;;;;;4964918;28;20300;-33
2023/08/03 09:26:45;;;;;;;1.73;0.90;;;20.70;99.90;;;;;;4991289;28;20201;-35
2023/08/03 09:29:13;;;;;;;2.45;0.88;;;20.90;99.90;;;;;;4971813;28;20644;-34
2023/08/03 09:31:39;;;;;;;4.07;1.00;;;20.90;99.90;;;;;;4962254;28;20231;-35
2023/08/03 09:34:09;;;;;;;2.60;0.90;;;21.00;99.90;;;;;;4962894;28;20196;-34
2023/08/03 09:36:47;;;;;;;2.92;0.70;;;21.10;99.90;;;;;;4969801;28;20180;-33
2023/08/03 09:39:14;;;;;;;3.47;0.80;;;21.10;99.90;;;;;;4970646;28;20184;-34
2023/08/03 09:41:40;;;;;;;1.33;0.70;;;21.40;99.90;;;;;;4970167;28;20184;-35
2023/08/03 09:44:07;;;;;;;1.98;0.85;;;21.80;99.90;;;;;;4970491;28;20213;-34
2023/08/03 09:46:36;;;;;;;2.20;0.90;;;21.90;99.90;;;;;;4963198;28;20185;-35
2023/08/03 09:49:02;;;;;;;2.40;0.80;;;21.80;99.90;;;;;;4984630;28;20212;-34
2023/08/03 09:51:30;;;;;;;2.05;0.60;;;21.80;99.90;;;;;;4967345;28;20204;-33
2023/08/03 09:54:12;;;;;;;1.98;0.70;;;21.50;99.90;;;;;;4969500;28;20215;-33
2023/08/03 09:56:52;;;;;;;4.03;0.60;;;21.10;99.90;;;;;;4971617;28;20327;-34
2023/08/03 09:59:25;;;;;;;2.60;0.77;;;21.00;99.90;;;;;;4962115;28;20295;-34
2023/08/03 10:01:57;;;;;;;3.05;0.80;;;21.00;99.90;;;;;;4964938;28;20185;-34
2023/08/03 10:04:26;;;;;;;0.82;0.60;;;21.00;99.90;;;;;;4961987;28;20219;-34
2023/08/03 10:07:00;;;;;;;0.90;0.60;;;21.20;99.90;;;;;;4969275;28;20205;-34
2023/08/03 10:09:33;;;;;;;1.60;0.60;;;21.20;99.90;;;;;;4960689;28;20185;-35
2023/08/03 10:12:04;;;;;;;1.52;0.60;;;20.90;99.90;;;;;;4969469;28;20184;-34
2023/08/03 10:14:36;;;;;;;2.63;0.65;;;20.80;99.90;;;;;;4974027;28;20196;-33
2023/08/03 10:17:09;;;;;;;2.38;0.75;;;20.80;99.90;;;;;;4982637;28;20184;-33
2023/08/03 10:19:39;;;;;;;3.25;0.70;;;20.90;99.90;;;;;;4969532;28;20291;-35
2023/08/03 10:22:08;;;;;;;3.90;0.70;;;21.00;99.90;;;;;;4973369;28;20185;-37
2023/08/03 10:24:35;;;;;;;2.00;0.70;;;21.00;99.90;;;;;;4964328;28;20228;-35
2023/08/03 10:27:18;;;;;;;2.53;0.77;;;20.90;99.90;;;;;;4959893;28;20291;-35
2023/08/03 10:29:56;;;;;;;1.50;0.70;;;20.80;99.90;;;;;;4978091;28;20256;-34
2023/08/03 10:32:26;;;;;;;2.03;0.60;;;20.60;99.90;;;;;;4960758;28;20303;-33
2023/08/03 10:34:58;;;;;;;1.55;0.70;;;20.50;99.90;;;;;;4970421;28;20216;-34
2023/08/03 10:37:25;;;;;;;1.58;0.82;;;20.40;99.90;;;;;;4967878;28;20762;-35
2023/08/03 10:40:01;;;;;;;2.58;0.88;;;20.40;99.90;;;;;;4961062;28;20211;-35
2023/08/03 10:42:32;;;;;;;1.45;0.63;;;20.60;99.90;;;;;;4966523;28;20192;-34
2023/08/03 10:45:20;;;;;;;1.90;0.93;;;20.70;99.90;;;;;;4961175;28;20300;-36
2023/08/03 10:47:51;;;;;;;1.75;0.70;;;20.90;99.90;;;;;;4970291;28;20213;-34
2023/08/03 10:50:41;;;;;;;1.73;0.70;;;21.00;99.90;;;;;;4966190;28;20188;-34
2023/08/03 10:53:08;;;;;;;2.88;0.95;;;21.00;99.90;;;;;;4960210;28;20216;-34
2023/08/03 10:55:34;;;;;;;2.60;0.70;;;20.90;99.90;;;;;;4953641;28;20267;-33
2023/08/03 10:58:00;;;;;;;5.63;0.80;;;20.90;99.90;;;;;;4974068;28;20244;-34
2023/08/03 11:00:25;;;;;;;1.65;0.93;;;20.80;99.90;;;;;;4975936;28;20184;-34
2023/08/03 11:02:51;;;;;;;2.10;0.98;;;20.80;99.90;;;;;;4960694;28;20184;-34
2023/08/03 11:05:18;;;;;;;2.55;0.70;;;20.80;99.90;;;;;;4974296;28;20213;-33
2023/08/03 11:07:50;;;;;;;1.15;0.80;;;20.80;99.90;;;;;;4973842;28;20264;-34
2023/08/03 11:10:17;;;;;;;2.60;1.02;;;20.90;99.90;;;;;;4963413;28;20255;-33
2023/08/03 11:12:46;;;;;;;1.52;0.77;;;20.90;99.90;;;;;;4988111;28;20767;-35
2023/08/03 11:15:16;;;;;;;2.05;0.73;;;20.90;99.90;;;;;;4972729;28;20203;-34
2023/08/03 11:17:46;;;;;;;3.25;0.82;;;20.90;99.90;;;;;;4969417;28;20193;-33
2023/08/03 11:20:14;;;;;;;2.17;0.70;;;20.90;99.90;;;;;;4974735;28;20233;-35
2023/08/03 11:22:41;;;;;;;2.22;0.90;;;20.90;99.90;;;;;;4976468;28;20189;-37
2023/08/03 11:25:08;;;;;;;1.67;0.68;;;21.00;99.90;;;;;;4973199;28;20201;-34
2023/08/03 11:27:34;;;;;;;1.50;0.65;;;20.90;99.90;;;;;;4972435;28;20267;-34
2023/08/03 11:30:03;;;;;;;2.38;0.63;;;20.90;99.90;;;;;;4973428;28;20192;-34
2023/08/03 11:32:33;;;;;;;1.65;0.80;;;21.00;99.90;;;;;;4988771;28;20180;-34
2023/08/03 11:35:04;;;;;;;1.25;0.82;;;20.90;99.90;;;;;;4988544;28;20205;-35
2023/08/03 11:37:32;;;;;;;2.88;0.70;;;21.00;99.90;;;;;;4997044;28;20271;-35
2023/08/03 11:40:00;;;;;;;1.85;0.60;;;21.00;99.90;;;;;;4978656;28;20192;-34
2023/08/03 11:42:33;;;;;;;2.20;0.90;;;20.90;99.90;;;;;;4985552;28;20279;-35
2023/08/03 11:45:01;;;;;;;1.25;0.77;;;20.80;99.90;;;;;;4976661;28;20311;-35
2023/08/03 11:47:44;;;;;;;2.28;0.52;;;20.80;99.90;;;;;;4975249;28;20798;-37
2023/08/03 11:50:11;;;;;;;2.28;0.93;;;20.90;99.90;;;;;;4957774;28;20267;-34
2023/08/03 11:52:38;;;;;;;2.05;0.77;;;20.80;99.90;;;;;;4972345;28;20191;-36
2023/08/03 11:55:05;;;;;;;1.55;0.70;;;20.80;99.90;;;;;;4973985;28;20200;-35
2023/08/03 12:00:16;;;;;;;2.30;0.70;;;21.00;99.90;;;;;;4996149;28;20214;-34
2023/08/03 12:02:43;;;;;;;1.17;0.63;;;21.20;99.90;;;;;;4992496;28;20278;-34
2023/08/03 12:05:10;;;;;;;1.15;0.65;;;21.60;99.90;;;;;;4981945;28;20231;-34
2023/08/03 12:07:36;;;;;;;2.00;0.60;;;21.80;99.90;;;;;;4960115;28;20212;-34
2023/08/03 12:10:20;;;;;;;3.10;0.90;;;21.80;99.90;;;;;;4986673;28;20176;-34
2023/08/03 12:12:46;;;;;;;1.30;0.90;;;21.90;99.90;;;;;;4975715;28;20235;-35
2023/08/03 12:15:12;;;;;;;2.72;0.75;;;22.00;99.90;;;;;;4967932;28;20200;-33
2023/08/03 12:17:38;;;;;;;2.92;0.80;;;22.40;99.90;;;;;;4969889;28;20188;-34
2023/08/03 12:20:05;;;;;;;1.38;0.70;;;22.50;99.90;;;;;;4952889;28;20299;-34
2023/08/03 12:22:32;;;;;;;1.13;0.75;;;22.70;99.90;;;;;;4962296;28;20211;-35
2023/08/03 12:24:58;;;;;;;2.65;0.80;;;22.60;99.90;;;;;;4966866;28;20250;-35
2023/08/03 12:27:25;;;;;;;2.20;0.75;;;22.80;99.90;;;;;;4972137;28;20271;-33
2023/08/03 12:29:51;;;;;;;1.88;0.65;;;23.00;99.90;;;;;;4952708;28;20192;-33
2023/08/03 12:32:17;;;;;;;2.90;0.88;;;23.00;99.90;;;;;;4965501;28;20186;-33
2023/08/03 12:34:45;;;;;;;1.85;0.70;;;23.10;99.90;;;;;;4972945;28;20200;-34
2023/08/03 12:37:22;;;;;;;2.50;0.80;;;23.20;99.90;;;;;;4951921;28;20273;-34
2023/08/03 12:39:48;;;;;;;3.47;0.63;;;22.90;99.90;;;;;;4950425;28;20331;-33
2023/08/03 12:42:17;;;;;;;1.85;0.75;;;22.60;99.90;;;;;;4971269;28;20176;-34
2023/08/03 12:44:44;;;;;;;1.88;0.70;;;22.50;99.90;;;;;;4969553;28;20240;-33
2023/08/03 12:47:11;;;;;;;2.00;0.70;;;22.50;99.90;;;;;;4966308;28;20290;-33
2023/08/03 12:49:39;;;;;;;1.52;0.77;;;22.40;99.90;;;;;;4949417;28;20659;-35
2023/08/03 12:52:05;;;;;;;3.30;0.90;;;22.60;99.90;;;;;;4960636;28;20181;-35
2023/08/03 12:54:36;;;;;;;2.15;0.73;;;22.90;99.90;;;;;;4970967;28;20197;-34